Time;durP1;ratioP1;P1;durP2;ratioP2;P2;SDS_P1;SDS_P2;PMS_P1;PMS_P2;Temp;Humidity;BMP_temperature;BMP_pressure;BME280_temperature;BME280_humidity;BME280_pressure;Samples;Min_cycle;Max_cycle;Signal;HPM_P1;HPM_P2
2022/10/06 00:04:36;;;;;;;1.58;0.45;;;;;;;-148.88;99.08;75980.34;4991200;28;20050;-77
2022/10/06 00:07:01;;;;;;;2.08;0.30;;;;;;;-148.88;99.47;75964.09;4991981;28;20076;-77
2022/10/06 00:09:27;;;;;;;1.50;0.35;;;;;;;-148.88;98.71;75968.16;4993718;28;20022;-76
2022/10/06 00:11:52;;;;;;;2.55;0.65;;;;;;;-148.88;97.96;75984.41;4980200;28;20465;-77
2022/10/06 00:14:17;;;;;;;0.90;0.30;;;;;;;-148.88;98.09;75992.53;4973748;28;20027;-76
2022/10/06 00:16:43;;;;;;;1.25;0.50;;;;;;;-148.88;98.64;75992.53;4973789;28;20450;-77
2022/10/06 00:19:08;;;;;;;1.73;0.40;;;;;;;-148.88;98.58;75996.59;4972436;28;20556;-77
2022/10/06 00:21:33;;;;;;;1.20;0.50;;;;;;;-148.88;98.41;75998.63;4973744;28;20045;-77
2022/10/06 00:23:59;;;;;;;2.85;0.50;;;;;;;-148.88;97.17;75984.41;4972487;28;20023;-77
2022/10/06 00:26:24;;;;;;;4.18;0.50;;;;;;;-148.88;97.26;75992.53;4973924;28;20080;-77
2022/10/06 00:28:49;;;;;;;1.85;0.52;;;;;;;-148.88;97.18;75996.59;4973777;28;20027;-77
2022/10/06 00:31:16;;;;;;;2.13;0.50;;;;;;;-148.88;97.48;75996.59;4973925;28;20046;-78
2022/10/06 00:33:41;;;;;;;2.38;0.50;;;;;;;-148.88;96.67;76000.66;4974455;28;20026;-77
2022/10/06 00:36:07;;;;;;;2.60;0.60;;;;;;;-148.88;96.47;75996.59;4975097;28;20042;-77
2022/10/06 00:38:33;;;;;;;2.95;0.50;;;;;;;-148.88;97.08;75996.59;4976283;28;20544;-77
2022/10/06 00:40:59;;;;;;;1.40;0.30;;;;;;;-148.88;97.63;76004.72;4977490;28;20035;-76
2022/10/06 00:43:48;;;;;;;1.70;0.50;;;;;;;-148.88;97.48;76012.84;4978079;28;20026;-78
2022/10/06 00:46:16;;;;;;;1.15;0.40;;;;;;;-148.88;96.73;76008.78;4977334;28;20023;-76
2022/10/06 00:48:45;;;;;;;1.98;0.73;;;;;;;-148.88;96.76;76006.75;4976990;28;20477;-77
2022/10/06 00:51:13;;;;;;;2.30;0.60;;;;;;;-148.88;96.86;76008.78;4980871;28;20455;-78
2022/10/06 00:53:39;;;;;;;3.08;0.40;;;;;;;-148.88;97.42;76008.78;4980454;28;20027;-78
2022/10/06 00:56:05;;;;;;;2.10;0.45;;;;;;;-148.88;97.13;76000.66;4980670;28;20544;-78
2022/10/06 00:58:31;;;;;;;1.77;0.47;;;;;;;-148.88;97.22;76016.91;4979942;28;20034;-78
2022/10/06 01:00:58;;;;;;;5.45;0.80;;;;;;;-148.88;97.10;76025.03;4980548;28;20030;-78
2022/10/06 01:03:31;;;;;;;3.42;0.55;;;;;;;-148.88;96.64;76000.66;4980324;28;20126;-78
2022/10/06 01:05:58;;;;;;;1.25;0.55;;;;;;;-148.88;97.10;76020.97;4978693;28;20081;-78
2022/10/06 01:08:24;;;;;;;3.08;0.60;;;;;;;-148.88;98.09;76025.03;4980542;28;20481;-78
2022/10/06 01:10:50;;;;;;;3.50;0.52;;;;;;;-148.88;98.48;76033.16;4979878;28;20027;-76
2022/10/06 01:13:16;;;;;;;3.22;0.90;;;;;;;-148.88;98.32;76029.09;4981284;28;20022;-77
2022/10/06 01:15:59;;;;;;;2.83;0.70;;;;;;;-148.88;99.54;76037.22;4980138;28;20397;-78
2022/10/06 01:18:27;;;;;;;2.42;0.60;;;;;;;-148.88;99.30;76031.13;4980902;28;20026;-77
2022/10/06 01:21:05;;;;;;;3.53;1.13;;;;;;;-148.88;99.01;76029.09;4980303;28;20019;-78
2022/10/06 01:23:33;;;;;;;3.53;1.00;;;;;;;-148.88;99.12;76027.06;4979522;28;20379;-79
2022/10/06 01:26:02;;;;;;;2.42;0.70;;;;;;;-148.88;99.41;76049.41;4980103;28;20086;-78
2022/10/06 01:28:27;;;;;;;3.13;0.90;;;;;;;-148.88;99.42;76049.41;4979385;28;20023;-78
2022/10/06 01:30:55;;;;;;;2.97;1.23;;;;;;;-148.88;99.76;76057.53;4979974;28;20048;-78
2022/10/06 01:33:21;;;;;;;6.53;1.35;;;;;;;-148.88;99.11;76041.28;4979428;28;20023;-78
2022/10/06 01:35:49;;;;;;;4.15;1.00;;;;;;;-148.88;99.25;76045.34;4978671;28;20049;-78
2022/10/06 01:38:16;;;;;;;4.90;1.10;;;;;;;-148.88;98.92;76031.13;4978374;28;20481;-78
2022/10/06 01:40:41;;;;;;;4.00;1.30;;;;;;;-148.88;99.49;76049.41;4979799;28;20073;-78
2022/10/06 01:43:06;;;;;;;3.05;1.02;;;;;;;-148.88;99.28;76053.47;4980180;28;20149;-78
2022/10/06 01:45:32;;;;;;;3.92;1.48;;;;;;;-148.88;99.96;76065.66;4979659;28;20478;-78
2022/10/06 01:47:57;;;;;;;4.45;1.60;;;;;;;-148.88;99.98;76065.66;4984046;28;20105;-77
2022/10/06 01:50:22;;;;;;;4.88;1.60;;;;;;;-148.88;99.62;76065.66;4983235;28;20023;-78
2022/10/06 01:52:48;;;;;;;3.75;1.40;;;;;;;-148.88;99.60;76065.66;4979480;28;20031;-78
2022/10/06 01:55:13;;;;;;;4.95;1.65;;;;;;;-148.88;99.34;76063.63;4978927;28;20077;-78
2022/10/06 01:57:40;;;;;;;5.75;1.80;;;;;;;-148.88;99.12;76063.63;4979149;28;20038;-78
2022/10/06 02:00:06;;;;;;;6.70;1.60;;;;;;;-148.88;99.23;76075.81;4978850;28;20062;-78
2022/10/06 02:02:31;;;;;;;6.10;1.70;;;;;;;-148.88;99.28;76069.72;4976849;28;20038;-78
2022/10/06 02:04:57;;;;;;;7.07;1.58;;;;;;;-148.88;98.84;76069.72;4978147;28;20041;-78
2022/10/06 02:07:22;;;;;;;4.97;1.83;;;;;;;-148.88;98.24;76063.63;4977473;28;20482;-78
2022/10/06 02:09:47;;;;;;;5.50;1.50;;;;;;;-148.88;98.50;76075.81;4978945;28;20023;-78
2022/10/06 02:12:13;;;;;;;7.50;1.65;;;;;;;-148.88;98.64;76069.72;4978899;28;20026;-78
2022/10/06 02:14:38;;;;;;;7.97;1.35;;;;;;;-148.88;99.03;76081.91;4978731;28;20162;-77
2022/10/06 02:17:03;;;;;;;8.68;1.77;;;;;;;-148.88;98.48;76073.78;4979446;28;20022;-78
2022/10/06 02:19:28;;;;;;;6.28;2.05;;;;;;;-148.88;98.74;76094.09;4978456;28;20050;-78
2022/10/06 02:21:54;;;;;;;6.45;1.52;;;;;;;-148.88;98.77;76100.19;4977945;28;20373;-78
2022/10/06 02:24:20;;;;;;;4.88;1.60;;;;;;;-148.88;98.85;76100.19;4980015;28;20098;-80
2022/10/06 02:26:45;;;;;;;5.80;1.67;;;;;;;-148.88;99.24;76108.31;4979713;28;20109;-78
2022/10/06 02:29:11;;;;;;;5.63;1.70;;;;;;;-148.88;98.56;76096.13;4981267;28;20031;-76
2022/10/06 02:31:36;;;;;;;7.75;1.70;;;;;;;-148.88;98.88;76104.25;4980762;28;20051;-76
2022/10/06 02:34:01;;;;;;;6.55;1.88;;;;;;;-148.88;99.31;76124.56;4979646;28;20477;-78
2022/10/06 02:36:26;;;;;;;5.45;1.92;;;;;;;-148.88;99.53;76120.53;4978287;28;20018;-78
2022/10/06 02:38:52;;;;;;;6.75;1.98;;;;;;;-148.88;100.00;76130.69;4978322;28;20490;-77
2022/10/06 02:41:17;;;;;;;7.75;1.85;;;;;;;-148.88;100.00;76132.72;4977755;28;20029;-78
2022/10/06 02:43:45;;;;;;;5.65;2.60;;;;;;;-148.88;100.00;76142.88;4979370;28;20078;-78
2022/10/06 02:46:12;;;;;;;6.75;2.20;;;;;;;-148.88;100.00;76146.94;4978042;28;20023;-77
2022/10/06 02:48:38;;;;;;;8.73;2.47;;;;;;;-148.88;100.00;76157.09;4978022;28;20027;-78
2022/10/06 02:51:10;;;;;;;7.10;2.80;;;;;;;-148.88;100.00;76157.09;4978840;28;20082;-78
2022/10/06 02:53:36;;;;;;;7.22;2.80;;;;;;;-148.88;100.00;76167.25;4994274;28;20026;-78
2022/10/06 02:56:05;;;;;;;8.15;2.50;;;;;;;-148.88;100.00;76159.13;4979144;28;20042;-78
2022/10/06 02:58:32;;;;;;;7.60;2.38;;;;;;;-148.88;99.71;76159.13;4979028;28;20107;-78
2022/10/06 03:01:05;;;;;;;8.52;2.60;;;;;;;-148.88;99.69;76163.19;4978589;28;20127;-78
2022/10/06 03:03:31;;;;;;;;;;;;;;;-148.88;99.59;76159.13;4979131;28;20046;-77
2022/10/06 03:06:21;;;;;;;7.03;2.83;;;;;;;-148.88;99.34;76159.13;4978128;28;20285;-77
2022/10/06 03:09:01;;;;;;;12.95;3.17;;;;;;;-148.88;98.50;76169.28;4973318;28;20126;-76
2022/10/06 03:11:32;;;;;;;9.63;2.83;;;;;;;-148.88;97.78;76171.31;4979120;28;20031;-78
2022/10/06 03:13:58;;;;;;;9.38;2.75;;;;;;;-148.88;97.49;76155.06;4977712;28;20023;-78
2022/10/06 03:16:25;;;;;;;6.80;2.40;;;;;;;-148.88;98.15;76175.38;4978644;28;20371;-78
2022/10/06 03:18:52;;;;;;;12.75;2.58;;;;;;;-148.88;98.33;76179.44;4978591;28;20054;-78
2022/10/06 03:21:23;;;;;;;9.70;2.50;;;;;;;-148.88;97.99;76185.53;4977805;28;20101;-78
2022/10/06 03:23:50;;;;;;;8.88;2.42;;;;;;;-148.88;97.41;76179.44;4978051;28;20027;-78
2022/10/06 03:26:19;;;;;;;8.18;2.40;;;;;;;-148.88;97.32;76185.53;4977947;28;20026;-78
2022/10/06 03:28:46;;;;;;;5.55;2.33;;;;;;;-148.88;97.02;76191.63;4975049;28;20026;-78
2022/10/06 03:31:13;;;;;;;8.82;2.70;;;;;;;-148.88;97.71;76203.81;4974954;28;20486;-78
2022/10/06 03:33:38;;;;;;;8.63;2.67;;;;;;;-148.88;97.65;76220.06;4975152;28;20027;-78
2022/10/06 03:36:12;;;;;;;8.98;2.67;;;;;;;-148.88;97.97;76216.00;4973821;28;20034;-78
2022/10/06 03:38:39;;;;;;;;;;;;;;;-148.88;98.17;76222.09;4975337;28;20383;-78
2022/10/06 03:41:14;;;;;;;12.32;2.85;;;;;;;-148.88;97.81;76218.03;4974417;28;19965;-76
2022/10/06 03:43:42;;;;;;;7.82;2.65;;;;;;;-148.88;97.83;76236.31;4974994;28;20429;-77
2022/10/06 03:46:10;;;;;;;7.82;2.50;;;;;;;-148.88;98.62;76244.44;4974824;28;20050;-77
2022/10/06 03:48:36;;;;;;;10.18;2.63;;;;;;;-148.88;98.81;76252.56;4973307;28;20019;-77
2022/10/06 03:51:04;;;;;;;6.65;2.28;;;;;;;-148.88;98.47;76252.56;4973323;28;20082;-78
2022/10/06 03:53:31;;;;;;;5.32;2.47;;;;;;;-148.88;98.33;76254.59;4976132;28;20031;-77
2022/10/06 03:56:10;;;;;;;8.18;2.65;;;;;;;-148.88;99.12;76264.75;4978855;28;20035;-79
2022/10/06 03:58:37;;;;;;;6.97;2.30;;;;;;;-148.88;99.27;76270.84;4979024;28;20030;-79
2022/10/06 04:01:08;;;;;;;9.63;2.78;;;;;;;-148.88;99.01;76283.03;4978566;28;20134;-79
2022/10/06 04:03:35;;;;;;;10.00;2.42;;;;;;;-148.88;98.85;76274.91;4978685;28;20114;-79
2022/10/06 04:06:03;;;;;;;12.75;2.53;;;;;;;-148.88;98.65;76291.16;4978700;28;20027;-79
2022/10/06 04:08:29;;;;;;;7.88;2.45;;;;;;;-148.88;98.79;76305.38;4978397;28;20019;-79
2022/10/06 04:11:02;;;;;;;10.82;3.00;;;;;;;-148.88;98.96;76317.56;4978636;28;20046;-79
2022/10/06 04:13:28;;;;;;;8.45;2.70;;;;;;;-148.88;99.20;76325.69;4978702;28;20446;-79
2022/10/06 04:15:53;;;;;;;7.05;2.38;;;;;;;-148.88;99.06;76333.81;4979528;28;20023;-79
2022/10/06 04:18:19;;;;;;;10.45;2.25;;;;;;;-148.88;99.17;76333.81;4977788;28;20026;-77
2022/10/06 04:20:44;;;;;;;9.95;2.50;;;;;;;-148.88;99.68;76346.00;4979367;28;20118;-77
2022/10/06 04:23:09;;;;;;;7.95;1.60;;;;;;;-148.88;99.47;76354.13;4979149;28;20026;-79
2022/10/06 04:25:35;;;;;;;10.35;1.95;;;;;;;-148.88;99.81;76370.38;4985202;28;20034;-79
2022/10/06 04:28:00;;;;;;;7.97;1.83;;;;;;;-148.88;99.15;76368.34;4984727;28;20027;-79
2022/10/06 04:30:25;;;;;;;10.02;1.85;;;;;;;-148.88;98.82;76376.47;4985156;28;20066;-79
2022/10/06 04:32:52;;;;;;;8.32;2.30;;;;;;;-148.88;98.89;76378.50;4985887;28;20094;-79
2022/10/06 04:35:18;;;;;;;10.48;1.95;;;;;;;-148.88;99.71;76411.00;4986354;28;20548;-79
2022/10/06 04:37:43;;;;;;;10.73;2.05;;;;;;;-148.88;99.97;76415.06;4985931;28;20031;-79
2022/10/06 04:40:09;;;;;;;8.82;2.20;;;;;;;-148.88;100.00;76423.19;4984651;28;20019;-78
2022/10/06 04:42:35;;;;;;;6.15;1.83;;;;;;;-148.88;99.96;76429.31;4986189;28;20078;-79
2022/10/06 04:45:01;;;;;;;10.80;1.50;;;;;;;-148.88;99.61;76435.41;4984564;28;20023;-79
2022/10/06 04:47:26;;;;;;;6.28;1.45;;;;;;;-148.88;99.64;76445.56;4984278;28;20506;-79
2022/10/06 04:49:51;;;;;;;13.15;2.22;;;;;;;-148.88;99.41;76443.53;4985945;28;20397;-79
2022/10/06 04:52:17;;;;;;;8.35;1.50;;;;;;;-148.88;98.65;76443.53;4985180;28;20029;-79
2022/10/06 04:54:42;;;;;;;10.40;2.08;;;;;;;-148.88;98.53;76451.66;4983494;28;20042;-79
2022/10/06 04:57:07;;;;;;;7.90;1.52;;;;;;;-148.88;98.09;76457.75;4984179;28;20030;-79
2022/10/06 05:02:18;;;;;;;8.18;1.75;;;;;;;-148.88;98.32;76486.19;4986352;28;20069;-79
2022/10/06 05:04:43;;;;;;;10.90;1.85;;;;;;;-148.88;98.55;76504.47;4984087;28;20030;-79
2022/10/06 05:07:09;;;;;;;7.75;1.73;;;;;;;-148.88;98.17;76492.28;4985957;28;20030;-79
2022/10/06 05:09:34;;;;;;;8.05;1.90;;;;;;;-148.88;98.26;76508.53;4986144;28;20077;-79
2022/10/06 05:11:59;;;;;;;11.73;1.77;;;;;;;-148.88;98.42;76514.63;4985185;28;20031;-79
2022/10/06 05:14:24;;;;;;;11.07;2.05;;;;;;;-148.88;98.58;76522.75;4985241;28;20470;-79
2022/10/06 05:16:50;;;;;;;8.98;1.63;;;;;;;-148.88;98.71;76530.88;4985734;28;20034;-79
2022/10/06 05:19:15;;;;;;;11.63;1.83;;;;;;;-148.88;98.70;76528.84;4984856;28;20054;-78
2022/10/06 05:21:41;;;;;;;10.15;2.33;;;;;;;-148.88;98.48;76539.00;4983914;28;20497;-78
2022/10/06 05:24:06;;;;;;;11.05;2.33;;;;;;;-148.88;99.27;76553.22;4985638;28;20026;-79
2022/10/06 05:26:33;;;;;;;12.90;2.00;;;;;;;-148.88;99.18;76563.38;4985231;28;20041;-79
2022/10/06 05:28:59;;;;;;;7.85;1.98;;;;;;;-148.88;99.51;76563.38;4985708;28;20129;-79
2022/10/06 05:31:27;;;;;;;8.73;1.80;;;;;;;-148.88;99.24;76581.66;4984823;28;20042;-77
2022/10/06 05:33:54;;;;;;;7.40;2.10;;;;;;;-148.88;99.81;76587.75;4985562;28;20093;-79
2022/10/06 05:36:25;;;;;;;10.02;2.10;;;;;;;-148.88;99.51;76593.84;4983225;28;20555;-79
2022/10/06 05:38:50;;;;;;;15.10;2.30;;;;;;;-148.88;99.88;76599.94;4982687;28;20030;-79
2022/10/06 05:41:18;;;;;;;9.70;2.00;;;;;;;-148.88;99.88;76593.84;4981834;28;20074;-79
2022/10/06 05:43:44;;;;;;;13.38;2.20;;;;;;;-148.88;100.00;76618.25;4982523;28;20037;-79
2022/10/06 05:46:16;;;;;;;12.73;1.98;;;;;;;-148.88;100.00;76620.28;4982055;28;20026;-79
2022/10/06 05:48:43;;;;;;;9.88;2.13;;;;;;;-148.88;99.91;76628.41;4981292;28;20113;-79
2022/10/06 05:51:09;;;;;;;12.18;2.25;;;;;;;-148.88;99.73;76626.38;4980671;28;20014;-79
2022/10/06 05:53:35;;;;;;;11.43;2.60;;;;;;;-148.88;100.00;76650.75;4981765;28;20111;-79
2022/10/06 05:56:12;;;;;;;7.72;1.73;;;;;;;-148.88;99.96;76646.69;4981011;28;20022;-79
2022/10/06 05:58:40;;;;;;;14.98;2.90;;;;;;;-148.88;100.00;76667.00;4980894;28;20098;-78
2022/10/06 06:01:09;;;;;;;9.02;2.00;;;;;;;-148.88;100.00;76667.00;4981784;28;20066;-78
2022/10/06 06:03:35;;;;;;;13.90;2.53;;;;;;;-148.88;100.00;76675.13;4980679;28;20034;-78
2022/10/06 06:06:01;;;;;;;11.52;1.90;;;;;;;-148.88;100.00;76683.25;4981624;28;20094;-79
2022/10/06 06:08:27;;;;;;;11.40;2.10;;;;;;;-148.88;100.00;76685.28;4981421;28;20418;-78
2022/10/06 06:10:52;;;;;;;10.75;2.55;;;;;;;-148.88;100.00;76691.38;4981955;28;20030;-79
2022/10/06 06:13:21;;;;;;;14.32;2.38;;;;;;;-148.88;100.00;76691.38;4982607;28;20078;-79
2022/10/06 06:16:03;;;;;;;15.63;2.80;;;;;;;-148.88;100.00;76697.47;4981429;28;20035;-78
2022/10/06 06:18:30;;;;;;;11.55;2.00;;;;;;;-148.88;100.00;76695.44;4981832;28;20030;-78
2022/10/06 06:21:01;;;;;;;11.45;2.33;;;;;;;-148.88;100.00;76691.38;4981158;28;20023;-78
2022/10/06 06:23:39;;;;;;;15.13;2.65;;;;;;;-148.88;100.00;76707.63;4981191;28;20034;-78
2022/10/06 06:26:07;;;;;;;10.77;2.22;;;;;;;-148.88;100.00;76707.63;4981264;28;20054;-79
2022/10/06 06:28:35;;;;;;;10.15;2.28;;;;;;;-148.88;99.86;76699.50;4980911;28;20106;-78
2022/10/06 06:31:19;;;;;;;14.55;2.15;;;;;;;-148.88;100.00;76705.59;4981015;28;20054;-78
2022/10/06 06:33:46;;;;;;;10.30;2.22;;;;;;;-148.88;100.00;76713.72;4979502;28;20126;-78
2022/10/06 06:36:26;;;;;;;12.57;2.85;;;;;;;-148.88;99.66;76697.47;4981807;28;20026;-78
2022/10/06 06:38:56;;;;;;;12.35;2.47;;;;;;;-148.88;99.59;76707.63;4979879;28;20481;-78
2022/10/06 06:41:25;;;;;;;15.00;2.42;;;;;;;-148.88;99.81;76703.56;4981421;28;20027;-78
2022/10/06 06:43:51;;;;;;;11.90;2.42;;;;;;;-148.88;99.91;76709.66;4979403;28;20027;-78
2022/10/06 06:46:19;;;;;;;10.73;2.25;;;;;;;-148.88;99.96;76703.56;4978544;28;20041;-77
2022/10/06 06:48:46;;;;;;;12.20;2.40;;;;;;;-148.88;99.58;76705.59;4980603;28;20035;-78
2022/10/06 06:51:12;;;;;;;10.13;2.45;;;;;;;-148.88;98.83;76705.59;4980267;28;20090;-78
2022/10/06 06:53:38;;;;;;;11.25;2.63;;;;;;;-148.88;98.58;76703.56;4977752;28;20029;-77
2022/10/06 06:56:05;;;;;;;11.18;2.22;;;;;;;-148.88;98.51;76707.63;4977416;28;20031;-77
2022/10/06 06:58:31;;;;;;;15.80;2.58;;;;;;;-148.88;98.62;76715.75;4977548;28;20029;-78
2022/10/06 07:01:07;;;;;;;13.50;2.53;;;;;;;-148.88;98.56;76713.72;4978416;28;20046;-77
2022/10/06 07:03:33;;;;;;;11.77;2.45;;;;;;;-148.88;98.92;76717.78;4978128;28;20034;-77
2022/10/06 07:06:08;;;;;;;14.10;3.15;;;;;;;-148.88;98.81;76711.69;4977142;28;20378;-77
2022/10/06 07:08:38;;;;;;;10.52;2.58;;;;;;;-148.88;98.09;76709.66;4977150;28;20038;-77
2022/10/06 07:11:28;;;;;;;9.45;2.45;;;;;;;-148.88;98.52;76707.63;4977057;28;20031;-77
2022/10/06 07:14:00;;;;;;;11.98;2.65;;;;;;;-148.88;97.85;76709.66;4977484;28;20023;-78
2022/10/06 07:27:32;;;;;;;;;;;;;;;-148.88;95.92;76687.31;4979727;28;20057;-78
2022/10/06 07:29:57;;;;;;;14.50;2.70;;;;;;;-148.88;95.69;76695.44;4978714;28;20463;-78
2022/10/06 07:32:25;;;;;;;12.13;2.03;;;;;;;-148.88;94.93;76699.50;4978255;28;20065;-77
2022/10/06 07:34:50;;;;;;;9.68;2.15;;;;;;;-148.88;94.98;76691.38;4977539;28;20058;-78
2022/10/06 07:37:16;;;;;;;11.68;2.85;;;;;;;-148.88;94.53;76681.22;4977949;28;20031;-77
2022/10/06 07:39:43;;;;;;;9.52;2.25;;;;;;;-148.88;94.67;76689.34;4976304;28;20057;-78
2022/10/06 07:42:12;;;;;;;11.05;3.05;;;;;;;-148.88;93.38;76687.31;4977457;28;20026;-77
2022/10/06 07:44:37;;;;;;;9.65;2.05;;;;;;;-148.88;93.46;76691.38;4976826;28;20031;-78
2022/10/06 07:47:04;;;;;;;15.30;2.78;;;;;;;-148.88;93.44;76683.25;4977055;28;20026;-77
2022/10/06 07:49:29;;;;;;;12.10;2.33;;;;;;;-148.88;93.61;76685.28;4976829;28;20033;-78
2022/10/06 07:51:55;;;;;;;15.07;2.78;;;;;;;-148.88;91.58;76675.13;4976710;28;20026;-78
2022/10/06 07:54:21;;;;;;;15.55;2.70;;;;;;;-148.88;91.68;76677.16;4976677;28;20101;-78
2022/10/06 07:56:46;;;;;;;15.88;2.60;;;;;;;-148.88;91.82;76675.13;4975752;28;20050;-78
2022/10/06 07:59:11;;;;;;;10.43;2.60;;;;;;;-148.88;91.54;76664.97;4975327;28;20090;-78
2022/10/06 08:01:38;;;;;;;16.75;3.00;;;;;;;-148.88;91.97;76656.84;4978185;28;20027;-77
2022/10/06 08:04:05;;;;;;;9.25;2.65;;;;;;;-148.88;91.73;76650.75;4979315;28;20038;-78
2022/10/06 08:06:31;;;;;;;15.00;3.15;;;;;;;-148.88;90.63;76658.88;4977664;28;20026;-78
2022/10/06 08:08:57;;;;;;;12.05;2.25;;;;;;;-148.88;90.53;76650.75;4978102;28;20037;-77
2022/10/06 08:11:22;;;;;;;14.10;2.47;;;;;;;-148.88;91.12;76648.72;4977818;28;20027;-77
2022/10/06 08:13:49;;;;;;;13.57;2.80;;;;;;;-148.88;91.15;76624.34;4976363;28;20493;-78
2022/10/06 08:16:18;;;;;;;14.13;2.38;;;;;;;-148.88;90.19;76632.47;4977185;28;20058;-77
2022/10/06 08:18:49;;;;;;;13.27;2.53;;;;;;;-148.88;88.18;76632.47;4976819;28;20058;-78
2022/10/06 08:21:17;;;;;;;13.73;2.80;;;;;;;-148.88;88.72;76626.38;4974811;28;20504;-78
2022/10/06 08:23:45;;;;;;;10.23;2.47;;;;;;;-148.88;89.12;76634.50;4974386;28;20030;-78
2022/10/06 08:26:12;;;;;;;11.10;2.30;;;;;;;-148.88;87.43;76622.31;4974627;28;20118;-78
2022/10/06 08:28:38;;;;;;;14.18;2.20;;;;;;;-148.88;87.48;76606.06;4975532;28;20082;-78
2022/10/06 08:31:10;;;;;;;10.85;2.53;;;;;;;-148.88;87.01;76618.25;4976205;28;20034;-78
2022/10/06 08:33:38;;;;;;;10.45;2.20;;;;;;;-148.88;86.42;76604.00;4990829;28;20030;-78
2022/10/06 08:36:07;;;;;;;14.32;2.83;;;;;;;-148.88;87.01;76587.75;4974827;28;20505;-78
2022/10/06 08:38:34;;;;;;;13.23;2.45;;;;;;;-148.88;86.88;76573.53;4976376;28;20034;-77
2022/10/06 08:40:59;;;;;;;8.93;2.25;;;;;;;-148.88;84.58;76565.41;4978860;28;20031;-77
2022/10/06 08:43:26;;;;;;;15.32;3.40;;;;;;;-148.88;84.18;76561.34;4976742;28;20023;-78
2022/10/06 08:45:58;;;;;;;10.18;1.92;;;;;;;-148.88;83.01;76543.06;4977702;28;20034;-78
2022/10/06 08:48:28;;;;;;;11.60;2.58;;;;;;;-148.88;82.16;76545.09;4977278;28;20378;-77
2022/10/06 08:51:06;;;;;;;12.13;1.90;;;;;;;-148.88;83.06;76532.91;4976972;28;20023;-78
2022/10/06 08:53:45;;;;;;;15.05;2.30;;;;;;;-148.88;81.74;76512.59;4975951;28;20034;-78
2022/10/06 08:56:19;;;;;;;13.30;2.20;;;;;;;-148.88;80.33;76516.66;4976827;28;20027;-78
2022/10/06 08:58:52;;;;;;;;;;;;;;;-148.88;78.72;76516.66;4976876;28;20038;-78
2022/10/06 09:01:22;;;;;;;5.65;1.90;;;;;;;-148.88;78.52;76518.69;4976361;28;19914;-78
2022/10/06 09:03:51;;;;;;;10.98;2.30;;;;;;;-148.88;79.03;76508.53;4975228;28;20061;-77
2022/10/06 09:06:58;;;;;;;10.32;2.38;;;;;;;-148.88;78.14;76494.31;4975994;28;20023;-77
2022/10/06 09:09:37;;;;;;;12.13;2.35;;;;;;;-148.88;76.53;76486.19;4968859;28;20038;-78
2022/10/06 09:12:27;;;;;;;11.40;1.98;;;;;;;-148.88;76.10;76478.06;4978607;28;20027;-78
2022/10/06 09:15:10;;;;;;;9.88;2.05;;;;;;;-148.88;75.21;76459.78;4980804;28;20109;-77
2022/10/06 09:17:40;;;;;;;9.07;1.92;;;;;;;-148.88;74.63;76445.56;4980712;28;20023;-77
2022/10/06 09:20:23;;;;;;;13.10;2.58;;;;;;;-148.88;73.52;76443.53;4981206;28;20118;-77
2022/10/06 09:22:50;;;;;;;10.53;2.17;;;;;;;-148.88;73.88;76425.25;4980837;28;20027;-78
2022/10/06 09:25:19;;;;;;;11.88;1.83;;;;;;;-148.88;74.83;76386.63;4979046;28;20492;-78
2022/10/06 09:27:52;;;;;;;10.65;2.17;;;;;;;-148.88;73.79;76354.13;4978813;28;20031;-78
2022/10/06 09:30:17;;;;;;;12.57;2.10;;;;;;;-148.88;73.37;76341.94;4980142;28;20034;-79
2022/10/06 09:32:46;;;;;;;11.73;1.80;;;;;;;-148.88;70.00;76343.97;4978715;28;20260;-78
2022/10/06 09:35:24;;;;;;;7.68;2.03;;;;;;;-148.88;69.89;76350.06;4979916;28;20039;-78
2022/10/06 09:37:55;;;;;;;10.98;1.77;;;;;;;-148.88;70.57;76413.03;4979839;28;20034;-78
2022/10/06 09:40:48;;;;;;;13.30;1.77;;;;;;;-148.88;70.96;76427.28;4978422;28;20105;-78
2022/10/06 09:43:19;;;;;;;6.38;1.50;;;;;;;-148.88;68.75;76441.50;4979387;28;20026;-77
2022/10/06 09:45:44;;;;;;;6.88;1.63;;;;;;;-148.88;70.12;76474.00;4979261;28;20037;-78
2022/10/06 09:48:23;;;;;;;9.60;2.28;;;;;;;-148.88;70.00;76492.28;4979191;28;20030;-78
2022/10/06 09:51:06;;;;;;;8.50;1.80;;;;;;;-148.88;70.50;76500.41;4979349;28;20481;-77
2022/10/06 09:53:32;;;;;;;7.95;1.50;;;;;;;-148.88;70.55;76504.47;4981206;28;20485;-77
2022/10/06 09:55:57;;;;;;;9.57;1.50;;;;;;;-148.88;68.38;76467.91;4980962;28;20037;-78
2022/10/06 09:58:26;;;;;;;9.57;1.73;;;;;;;-148.88;68.33;76441.50;4980635;28;20030;-77
2022/10/06 10:00:55;;;;;;;8.68;1.85;;;;;;;-148.88;67.91;76427.28;4979802;28;20034;-78
2022/10/06 10:03:21;;;;;;;9.90;1.92;;;;;;;-148.88;67.41;76427.28;4979356;28;20026;-77
2022/10/06 10:05:53;;;;;;;7.32;1.95;;;;;;;-148.88;67.71;76423.19;4979627;28;20041;-78
2022/10/06 10:08:23;;;;;;;7.38;1.60;;;;;;;-148.88;67.22;76392.72;4979532;28;20136;-78
2022/10/06 10:13:56;;;;;;;9.80;1.40;;;;;;;-148.88;65.18;76325.69;4979073;28;20029;-78
2022/10/06 10:16:25;;;;;;;5.97;1.50;;;;;;;-148.88;64.55;76329.75;4978650;28;20387;-79
2022/10/06 10:18:51;;;;;;;9.48;1.58;;;;;;;-148.88;62.85;76350.06;4979036;28;20036;-78
2022/10/06 10:21:25;;;;;;;10.57;1.83;;;;;;;-148.88;63.92;76309.44;4977751;28;20019;-79
2022/10/06 10:23:56;;;;;;;10.15;1.88;;;;;;;-148.88;63.22;76285.06;4977970;28;20047;-77
2022/10/06 10:26:43;;;;;;;8.52;1.80;;;;;;;-148.88;61.58;76264.75;4979323;28;20029;-78
2022/10/06 10:29:21;;;;;;;13.35;2.05;;;;;;;-148.88;60.67;76301.31;4977331;28;20098;-78
2022/10/06 10:32:04;;;;;;;11.07;1.40;;;;;;;-148.88;61.16;76299.28;4978941;28;20097;-78
2022/10/06 10:34:46;;;;;;;6.35;1.33;;;;;;;-148.88;58.63;76285.06;4977601;28;20035;-78
2022/10/06 10:37:24;;;;;;;8.32;1.95;;;;;;;-148.88;59.20;76287.09;4978840;28;20077;-78
2022/10/06 10:39:55;;;;;;;8.68;1.58;;;;;;;-148.88;60.31;76285.06;4978763;28;20027;-78
2022/10/06 10:42:28;;;;;;;11.23;1.83;;;;;;;-148.88;59.18;76276.94;4978548;28;20022;-78
2022/10/06 10:44:59;;;;;;;7.90;1.48;;;;;;;-148.88;59.56;76264.75;4978468;28;20026;-77
2022/10/06 10:47:30;;;;;;;8.55;1.95;;;;;;;-148.88;61.60;76252.56;4978920;28;20126;-78
2022/10/06 10:50:06;;;;;;;8.90;1.45;;;;;;;-148.88;60.12;76244.44;4978337;28;20023;-79
2022/10/06 10:52:37;;;;;;;7.60;1.30;;;;;;;-148.88;57.84;76248.50;4978312;28;20026;-78
2022/10/06 10:55:33;;;;;;;6.45;1.50;;;;;;;-148.88;57.29;76224.13;4978766;28;20058;-78
2022/10/06 10:58:17;;;;;;;7.45;1.70;;;;;;;-148.88;56.66;76234.28;4975650;28;20038;-79
2022/10/06 11:00:47;;;;;;;8.95;1.60;;;;;;;-148.88;56.84;76205.84;4977171;28;20094;-78
2022/10/06 11:03:12;;;;;;;6.72;1.52;;;;;;;-148.88;57.52;76179.44;4976796;28;20035;-77
2022/10/06 11:05:53;;;;;;;7.47;1.10;;;;;;;-148.88;56.43;76148.97;4978614;28;20027;-77
2022/10/06 11:08:37;;;;;;;5.07;1.20;;;;;;;-148.88;54.32;76175.38;4977778;28;20026;-77
2022/10/06 11:11:11;;;;;;;5.53;1.35;;;;;;;-148.88;55.69;76203.81;4978428;28;20484;-78
2022/10/06 11:13:47;;;;;;;9.35;1.60;;;;;;;-148.88;55.60;76218.03;4978716;28;20027;-77
2022/10/06 11:16:31;;;;;;;5.28;1.20;;;;;;;-148.88;56.37;76224.13;4978064;28;20394;-79
2022/10/06 11:19:05;;;;;;;7.95;1.30;;;;;;;-148.88;56.55;76220.06;4978326;28;20027;-78
2022/10/06 11:21:44;;;;;;;6.03;1.40;;;;;;;-148.88;54.37;76177.41;4977772;28;20101;-78
2022/10/06 11:24:25;;;;;;;9.80;1.55;;;;;;;-148.88;54.37;76161.16;4976762;28;20115;-79
2022/10/06 11:27:27;;;;;;;9.40;1.42;;;;;;;-148.88;53.44;76171.31;4978505;28;20109;-78
2022/10/06 11:29:53;;;;;;;5.93;1.48;;;;;;;-148.88;53.64;76203.81;4978126;28;20113;-78
2022/10/06 11:32:39;;;;;;;6.88;1.50;;;;;;;-148.88;54.76;76195.69;4978004;28;20049;-78
2022/10/06 11:35:22;;;;;;;6.63;1.48;;;;;;;-148.88;54.27;76228.19;4977826;28;20078;-79
2022/10/06 11:37:59;;;;;;;6.63;1.45;;;;;;;-148.88;53.03;76199.75;4976997;28;20486;-78
2022/10/06 11:40:50;;;;;;;8.93;1.60;;;;;;;-148.88;52.75;76224.13;4976296;28;20497;-78
2022/10/06 11:43:39;;;;;;;7.82;1.45;;;;;;;-148.88;52.17;76203.81;4977226;28;20476;-78
2022/10/06 11:46:16;;;;;;;5.47;1.50;;;;;;;-148.88;52.80;76205.84;4977884;28;20082;-78